Time,TemperatureF,DewpointF,PressureIn,WindDirection,WindDirectionDegrees,WindSpeedMPH,WindSpeedGustMPH,Humidity,HourlyPrecipIn,Conditions,Clouds,dailyrainin,SoftwareType,DateUTC
2013-07-19 00:01:00,80.4,70.4,29.98,WNW,293,0.0,3.4,71,0.00,,,0.00,WUHU216HW,2013-07-19 04:01:00,
2013-07-19 00:02:00,80.4,70.4,29.98,WNW,293,0.0,3.4,71,0.00,,,0.00,WUHU216HW,2013-07-19 04:02:00,
2013-07-19 00:07:00,80.4,70.4,29.98,WSW,248,0.0,1.8,71,0.00,,,0.00,WUHU216HW,2013-07-19 04:07:00,
2013-07-19 00:12:00,80.3,69.8,29.97,WSW,248,0.0,2.9,70,0.00,,,0.00,WUHU216HW,2013-07-19 04:12:00,
2013-07-19 00:17:00,80.1,69.7,29.98,WSW,248,0.0,2.9,70,0.00,,,0.00,WUHU216HW,2013-07-19 04:17:00,
2013-07-19 00:22:00,80.1,69.7,29.97,SW,225,0.0,1.1,70,0.00,,,0.00,WUHU216HW,2013-07-19 04:22:00,
2013-07-19 00:27:00,79.9,69.5,29.97,SW,225,0.0,1.1,70,0.00,,,0.00,WUHU216HW,2013-07-19 04:27:00,
2013-07-19 00:32:00,79.9,69.5,29.97,SW,225,0.0,0.0,70,0.00,,,0.00,WUHU216HW,2013-07-19 04:32:00,
2013-07-19 00:37:00,79.7,69.3,29.97,SW,225,0.0,0.0,70,0.00,,,0.00,WUHU216HW,2013-07-19 04:37:00,
2013-07-19 00:42:00,79.7,69.3,29.97,WSW,248,0.0,0.4,70,0.00,,,0.00,WUHU216HW,2013-07-19 04:42:00,
2013-07-19 00:47:00,79.7,69.3,29.98,WSW,248,0.0,0.4,70,0.00,,,0.00,WUHU216HW,2013-07-19 04:47:00,
2013-07-19 00:52:00,79.5,69.5,29.97,WSW,248,0.0,0.2,71,0.00,,,0.00,WUHU216HW,2013-07-19 04:52:00,
2013-07-19 00:57:00,79.4,69.4,29.98,WSW,248,2.0,3.1,71,0.00,,,0.00,WUHU216HW,2013-07-19 04:57:00,
2013-07-19 01:02:00,79.4,69.4,29.97,SE,135,0.4,3.1,71,0.00,,,0.00,WUHU216HW,2013-07-19 05:02:00,
2013-07-19 01:07:00,79.4,69.4,29.97,WSW,248,0.0,2.0,71,0.00,,,0.00,WUHU216HW,2013-07-19 05:07:00,
2013-07-19 01:12:00,79.2,69.2,29.97,WSW,248,0.0,1.3,71,0.00,,,0.00,WUHU216HW,2013-07-19 05:12:00,
2013-07-19 01:17:00,79.2,69.2,29.97,WSW,248,0.0,1.3,71,0.00,,,0.00,WUHU216HW,2013-07-19 05:17:00,
2013-07-19 01:22:00,79.0,69.0,29.97,WSW,248,0.0,0.4,71,0.00,,,0.00,WUHU216HW,2013-07-19 05:22:00,
2013-07-19 01:27:00,79.0,69.0,29.97,West,270,0.0,0.4,71,0.00,,,0.00,WUHU216HW,2013-07-19 05:27:00,
2013-07-19 01:32:00,79.0,69.0,29.97,NE,45,0.7,1.1,71,0.00,,,0.00,WUHU216HW,2013-07-19 05:32:00,
2013-07-19 01:37:00,78.8,68.8,29.97,West,270,0.0,1.1,71,0.00,,,0.00,WUHU216HW,2013-07-19 05:37:00,
2013-07-19 01:42:00,78.8,68.8,29.97,West,270,0.0,0.4,71,0.00,,,0.00,WUHU216HW,2013-07-19 05:42:00,
2013-07-19 01:47:00,78.8,68.8,29.97,West,270,0.0,0.4,71,0.00,,,0.00,WUHU216HW,2013-07-19 05:47:00,
2013-07-19 01:52:00,78.6,68.6,29.97,West,270,0.0,0.4,71,0.00,,,0.00,WUHU216HW,2013-07-19 05:52:00,
2013-07-19 01:57:00,78.6,68.6,29.97,West,270,0.0,0.7,71,0.00,,,0.00,WUHU216HW,2013-07-19 05:57:00,
2013-07-19 02:02:00,78.6,68.6,29.97,WSW,248,0.0,0.7,71,0.00,,,0.00,WUHU216HW,2013-07-19 06:02:00,
2013-07-19 02:07:00,78.5,68.5,29.97,WSW,248,0.0,1.1,71,0.00,,,0.00,WUHU216HW,2013-07-19 06:07:00,
2013-07-19 02:12:00,78.5,68.9,29.97,WSW,248,0.4,1.1,72,0.00,,,0.00,WUHU216HW,2013-07-19 06:12:00,
2013-07-19 02:17:00,78.3,68.7,29.97,WSW,248,0.4,0.9,72,0.00,,,0.00,WUHU216HW,2013-07-19 06:17:00,
2013-07-19 02:22:00,78.3,68.7,29.97,WSW,248,0.0,0.9,72,0.00,,,0.00,WUHU216HW,2013-07-19 06:22:00,
2013-07-19 02:27:00,78.1,68.5,29.97,SW,225,0.0,1.1,72,0.00,,,0.00,WUHU216HW,2013-07-19 06:27:00,
2013-07-19 02:32:00,78.1,68.9,29.97,SW,225,0.0,1.1,73,0.00,,,0.00,WUHU216HW,2013-07-19 06:32:00,
2013-07-19 02:37:00,77.9,68.7,29.97,SW,225,0.0,0.0,73,0.00,,,0.00,WUHU216HW,2013-07-19 06:37:00,
2013-07-19 02:42:00,77.7,68.5,29.97,SW,225,1.1,1.1,73,0.00,,,0.00,WUHU216HW,2013-07-19 06:42:00,
2013-07-19 02:47:00,77.7,68.5,29.97,SW,225,0.0,1.1,73,0.00,,,0.00,WUHU216HW,2013-07-19 06:47:00,
2013-07-19 02:52:00,77.6,68.4,29.97,SW,225,0.0,1.1,73,0.00,,,0.00,WUHU216HW,2013-07-19 06:52:00,
2013-07-19 02:57:00,77.6,68.4,29.96,SE,135,0.0,0.0,73,0.00,,,0.00,WUHU216HW,2013-07-19 06:57:00,
2013-07-19 03:02:00,77.4,68.3,29.97,WSW,248,0.0,0.0,73,0.00,,,0.00,WUHU216HW,2013-07-19 07:02:00,
2013-07-19 03:07:00,77.2,68.1,29.97,WSW,248,0.0,0.9,73,0.00,,,0.00,WUHU216HW,2013-07-19 07:07:00,
2013-07-19 03:12:00,77.2,68.1,29.97,WSW,248,0.0,0.9,73,0.00,,,0.00,WUHU216HW,2013-07-19 07:12:00,
2013-07-19 03:17:00,77.0,67.9,29.97,WSW,248,0.0,0.4,73,0.00,,,0.00,WUHU216HW,2013-07-19 07:17:00,
2013-07-19 03:22:00,76.8,67.7,29.97,WSW,248,0.0,0.4,73,0.00,,,0.00,WUHU216HW,2013-07-19 07:22:00,
2013-07-19 03:27:00,76.8,68.1,29.97,SE,135,0.7,0.9,74,0.00,,,0.00,WUHU216HW,2013-07-19 07:27:00,
2013-07-19 03:32:00,76.7,68.0,29.97,SE,135,0.2,0.9,74,0.00,,,0.00,WUHU216HW,2013-07-19 07:32:00,
2013-07-19 03:37:00,76.7,68.0,29.97,SE,135,0.0,0.4,74,0.00,,,0.00,WUHU216HW,2013-07-19 07:37:00,
2013-07-19 03:42:00,76.5,67.8,29.96,SE,135,0.0,0.0,74,0.00,,,0.00,WUHU216HW,2013-07-19 07:42:00,
2013-07-19 03:47:00,76.5,67.8,29.96,SE,135,0.0,0.0,74,0.00,,,0.00,WUHU216HW,2013-07-19 07:47:00,
2013-07-19 03:52:00,76.3,67.6,29.96,SE,135,0.0,0.0,74,0.00,,,0.00,WUHU216HW,2013-07-19 07:52:00,
2013-07-19 03:57:00,76.1,67.4,29.96,SE,135,0.7,0.7,74,0.00,,,0.00,WUHU216HW,2013-07-19 07:57:00,
2013-07-19 04:02:00,76.1,67.8,29.96,SE,135,0.0,0.7,75,0.00,,,0.00,WUHU216HW,2013-07-19 08:02:00,
2013-07-19 04:07:00,76.1,67.8,29.96,SE,135,0.0,0.7,75,0.00,,,0.00,WUHU216HW,2013-07-19 08:07:00,
2013-07-19 04:12:00,75.9,67.6,29.96,SE,135,0.2,0.7,75,0.00,,,0.00,WUHU216HW,2013-07-19 08:12:00,
2013-07-19 04:17:00,75.8,67.5,29.95,SE,135,0.4,1.1,75,0.00,,,0.00,WUHU216HW,2013-07-19 08:17:00,
2013-07-19 04:22:00,75.8,67.5,29.95,SE,135,0.0,1.1,75,0.00,,,0.00,WUHU216HW,2013-07-19 08:22:00,
2013-07-19 04:27:00,75.8,67.5,29.96,SW,225,0.0,0.4,75,0.00,,,0.00,WUHU216HW,2013-07-19 08:27:00,
2013-07-19 04:32:00,75.8,67.5,29.95,ESE,113,0.0,0.4,75,0.00,,,0.00,WUHU216HW,2013-07-19 08:32:00,
2013-07-19 04:37:00,75.8,67.5,29.95,WSW,248,0.0,0.7,75,0.00,,,0.00,WUHU216HW,2013-07-19 08:37:00,
2013-07-19 04:42:00,75.8,67.5,29.95,WSW,248,0.0,0.7,75,0.00,,,0.00,WUHU216HW,2013-07-19 08:42:00,
2013-07-19 04:47:00,75.6,67.3,29.95,WSW,248,0.0,0.0,75,0.00,,,0.00,WUHU216HW,2013-07-19 08:47:00,
2013-07-19 04:52:00,75.6,67.3,29.95,WSW,248,0.0,0.7,75,0.00,,,0.00,WUHU216HW,2013-07-19 08:52:00,
2013-07-19 04:57:00,75.6,67.3,29.95,South,180,0.9,2.5,75,0.00,,,0.00,WUHU216HW,2013-07-19 08:57:00,
2013-07-19 05:02:00,75.6,67.3,29.95,WSW,248,0.4,2.5,75,0.00,,,0.00,WUHU216HW,2013-07-19 09:02:00,
2013-07-19 05:07:00,75.4,67.1,29.95,SW,225,0.0,1.3,75,0.00,,,0.00,WUHU216HW,2013-07-19 09:07:00,
2013-07-19 05:12:00,75.4,67.1,29.95,SW,225,0.0,1.3,75,0.00,,,0.00,WUHU216HW,2013-07-19 09:12:00,
2013-07-19 05:17:00,75.4,67.1,29.94,SW,225,0.0,0.4,75,0.00,,,0.00,WUHU216HW,2013-07-19 09:17:00,
2013-07-19 05:22:00,75.2,66.9,29.95,SW,225,0.0,0.4,75,0.00,,,0.00,WUHU216HW,2013-07-19 09:22:00,
2013-07-19 05:27:00,75.2,66.9,29.95,SW,225,0.0,0.0,75,0.00,,,0.00,WUHU216HW,2013-07-19 09:27:00,
2013-07-19 05:32:00,75.2,66.9,29.95,SW,225,0.0,0.0,75,0.00,,,0.00,WUHU216HW,2013-07-19 09:32:00,
2013-07-19 05:37:00,75.0,66.7,29.95,SSW,203,0.4,0.7,75,0.00,,,0.00,WUHU216HW,2013-07-19 09:37:00,
2013-07-19 05:42:00,75.0,66.7,29.95,SSW,203,0.0,0.7,75,0.00,,,0.00,WUHU216HW,2013-07-19 09:42:00,
2013-07-19 05:47:00,75.0,66.7,29.95,SSW,203,0.0,0.4,75,0.00,,,0.00,WUHU216HW,2013-07-19 09:47:00,
2013-07-19 05:52:00,74.9,66.6,29.95,SE,135,0.4,0.4,75,0.00,,,0.00,WUHU216HW,2013-07-19 09:52:00,
2013-07-19 05:57:00,74.9,67.0,29.95,SE,135,0.0,0.4,76,0.00,,,0.00,WUHU216HW,2013-07-19 09:57:00,
2013-07-19 06:02:00,74.7,66.8,29.94,ESE,113,0.0,0.4,76,0.00,,,0.00,WUHU216HW,2013-07-19 10:02:00,
2013-07-19 06:07:00,74.7,66.8,29.94,ESE,113,0.0,0.0,76,0.00,,,0.00,WUHU216HW,2013-07-19 10:07:00,
2013-07-19 06:12:00,74.7,66.8,29.94,ESE,113,0.0,0.0,76,0.00,,,0.00,WUHU216HW,2013-07-19 10:12:00,
2013-07-19 06:17:00,74.7,66.8,29.94,ESE,113,0.0,0.0,76,0.00,,,0.00,WUHU216HW,2013-07-19 10:17:00,
2013-07-19 06:22:00,74.7,66.8,29.94,NE,45,0.0,0.0,76,0.00,,,0.00,WUHU216HW,2013-07-19 10:22:00,
2013-07-19 06:27:00,74.7,66.8,29.94,NE,45,0.0,0.0,76,0.00,,,0.00,WUHU216HW,2013-07-19 10:27:00,
2013-07-19 06:32:00,74.7,66.8,29.94,NE,45,0.0,0.0,76,0.00,,,0.00,WUHU216HW,2013-07-19 10:32:00,
2013-07-19 06:37:00,74.7,66.8,29.94,NE,45,0.0,0.0,76,0.00,,,0.00,WUHU216HW,2013-07-19 10:37:00,
2013-07-19 06:42:00,74.9,67.0,29.94,NE,45,0.0,0.0,76,0.00,,,0.00,WUHU216HW,2013-07-19 10:42:00,
2013-07-19 06:47:00,74.9,66.6,29.94,NE,45,0.0,0.0,75,0.00,,,0.00,WUHU216HW,2013-07-19 10:47:00,
2013-07-19 06:52:00,74.9,66.6,29.94,NE,45,0.0,0.0,75,0.00,,,0.00,WUHU216HW,2013-07-19 10:52:00,
2013-07-19 06:57:00,75.0,66.7,29.94,NNW,338,0.0,0.4,75,0.00,,,0.00,WUHU216HW,2013-07-19 10:57:00,
2013-07-19 07:02:00,75.2,66.9,29.94,West,270,0.0,1.3,75,0.00,,,0.00,WUHU216HW,2013-07-19 11:02:00,
2013-07-19 07:07:00,75.4,67.1,29.94,West,270,0.0,1.3,75,0.00,,,0.00,WUHU216HW,2013-07-19 11:07:00,
2013-07-19 07:12:00,75.6,67.3,29.94,West,270,0.0,0.7,75,0.00,,,0.00,WUHU216HW,2013-07-19 11:12:00,
2013-07-19 07:17:00,75.8,67.5,29.94,West,270,0.0,0.7,75,0.00,,,0.00,WUHU216HW,2013-07-19 11:17:00,
2013-07-19 07:22:00,75.9,67.9,29.95,West,270,1.1,2.0,76,0.00,,,0.00,WUHU216HW,2013-07-19 11:22:00,
2013-07-19 07:27:00,76.1,68.1,29.95,West,270,0.4,2.0,76,0.00,,,0.00,WUHU216HW,2013-07-19 11:27:00,
2013-07-19 07:32:00,76.1,68.1,29.95,West,270,0.0,1.6,76,0.00,,,0.00,WUHU216HW,2013-07-19 11:32:00,
2013-07-19 07:37:00,76.3,68.3,29.95,West,270,0.0,0.9,76,0.00,,,0.00,WUHU216HW,2013-07-19 11:37:00,
2013-07-19 07:42:00,76.5,68.5,29.95,West,270,0.0,0.4,76,0.00,,,0.00,WUHU216HW,2013-07-19 11:42:00,
2013-07-19 07:47:00,76.7,68.7,29.95,West,270,0.0,0.4,76,0.00,,,0.00,WUHU216HW,2013-07-19 11:47:00,
2013-07-19 07:52:00,76.8,68.8,29.95,West,270,0.0,0.7,76,0.00,,,0.00,WUHU216HW,2013-07-19 11:52:00,
2013-07-19 07:57:00,77.2,69.2,29.95,WNW,293,0.2,0.7,76,0.00,,,0.00,WUHU216HW,2013-07-19 11:57:00,
2013-07-19 08:02:00,77.2,68.8,29.95,NNE,23,0.7,1.1,75,0.00,,,0.00,WUHU216HW,2013-07-19 12:02:00,
2013-07-19 08:07:00,77.6,69.2,29.95,WSW,248,0.0,1.8,75,0.00,,,0.00,WUHU216HW,2013-07-19 12:07:00,
2013-07-19 08:12:00,77.7,69.3,29.95,West,270,3.1,3.1,75,0.00,,,0.00,WUHU216HW,2013-07-19 12:12:00,
2013-07-19 08:17:00,78.1,69.7,29.95,WSW,248,1.8,3.4,75,0.00,,,0.00,WUHU216HW,2013-07-19 12:17:00,
2013-07-19 08:22:00,78.5,70.1,29.95,SW,225,0.0,3.4,75,0.00,,,0.00,WUHU216HW,2013-07-19 12:22:00,
2013-07-19 08:27:00,78.6,70.2,29.95,SW,225,0.9,3.6,75,0.00,,,0.00,WUHU216HW,2013-07-19 12:27:00,
2013-07-19 08:32:00,79.0,70.2,29.95,WSW,248,1.1,3.6,74,0.00,,,0.00,WUHU216HW,2013-07-19 12:32:00,
2013-07-19 08:38:00,79.4,70.6,29.95,SW,225,0.9,3.6,74,0.00,,,0.00,WUHU216HW,2013-07-19 12:38:00,
2013-07-19 08:43:00,79.7,70.1,29.95,WSW,248,3.4,4.0,72,0.00,,,0.00,WUHU216HW,2013-07-19 12:43:00,
2013-07-19 08:48:00,79.9,70.3,29.95,SW,225,2.0,4.0,72,0.00,,,0.00,WUHU216HW,2013-07-19 12:48:00,
2013-07-19 08:53:00,80.1,70.5,29.95,WNW,293,2.5,3.8,72,0.00,,,0.00,WUHU216HW,2013-07-19 12:53:00,
2013-07-19 08:58:00,80.3,70.7,29.95,SW,225,1.8,2.9,72,0.00,,,0.00,WUHU216HW,2013-07-19 12:58:00,
2013-07-19 09:03:00,80.6,70.9,29.95,WSW,248,3.8,3.8,72,0.00,,,0.00,WUHU216HW,2013-07-19 13:03:00,
2013-07-19 09:08:00,80.8,71.1,29.95,SW,225,0.7,3.8,72,0.00,,,0.00,WUHU216HW,2013-07-19 13:08:00,
2013-07-19 09:13:00,81.0,70.9,29.95,SSW,203,1.6,4.3,71,0.00,,,0.00,WUHU216HW,2013-07-19 13:13:00,
2013-07-19 09:18:00,81.2,71.1,29.95,ESE,113,2.2,4.3,71,0.00,,,0.00,WUHU216HW,2013-07-19 13:18:00,
2013-07-19 09:23:00,81.5,71.0,29.95,WSW,248,2.9,4.0,70,0.00,,,0.00,WUHU216HW,2013-07-19 13:23:00,
2013-07-19 09:26:00,81.9,71.4,29.95,West,270,3.4,4.0,70,0.00,,,0.00,WUHU216HW,2013-07-19 13:26:00,
2013-07-19 09:32:00,82.1,71.2,29.95,West,270,4.5,4.5,69,0.00,,,0.00,WUHU216HW,2013-07-19 13:32:00,
2013-07-19 09:37:00,82.2,71.3,29.95,WNW,293,4.9,5.1,69,0.00,,,0.00,WUHU216HW,2013-07-19 13:37:00,
2013-07-19 09:42:00,82.4,71.0,29.95,WSW,248,4.5,5.4,68,0.00,,,0.00,WUHU216HW,2013-07-19 13:42:00,
2013-07-19 09:47:00,82.6,71.6,29.95,WSW,248,4.9,5.6,69,0.00,,,0.00,WUHU216HW,2013-07-19 13:47:00,
2013-07-19 09:52:00,82.6,71.6,29.95,WSW,248,2.7,6.9,69,0.00,,,0.00,WUHU216HW,2013-07-19 13:52:00,
2013-07-19 09:57:00,82.8,71.8,29.94,West,270,4.0,6.9,69,0.00,,,0.00,WUHU216HW,2013-07-19 13:57:00,
2013-07-19 10:02:00,83.0,72.0,29.94,West,270,0.9,7.2,69,0.00,,,0.00,WUHU216HW,2013-07-19 14:02:00,
2013-07-19 10:07:00,83.3,72.7,29.94,WNW,293,0.7,7.2,70,0.00,,,0.00,WUHU216HW,2013-07-19 14:07:00,
2013-07-19 10:12:00,83.7,72.7,29.94,SW,225,3.8,5.1,69,0.00,,,0.00,WUHU216HW,2013-07-19 14:12:00,
2013-07-19 10:17:00,83.7,72.3,29.94,West,270,6.0,6.9,68,0.00,,,0.00,WUHU216HW,2013-07-19 14:17:00,
2013-07-19 10:23:00,83.9,73.3,29.94,West,270,3.4,6.9,70,0.00,,,0.00,WUHU216HW,2013-07-19 14:23:00,
2013-07-19 10:28:00,84.0,73.0,29.94,SW,225,3.4,5.1,69,0.00,,,0.00,WUHU216HW,2013-07-19 14:28:00,
2013-07-19 10:33:00,84.4,73.4,29.94,West,270,4.3,5.1,69,0.00,,,0.00,WUHU216HW,2013-07-19 14:33:00,
2013-07-19 10:38:00,84.6,73.6,29.94,SSW,203,1.1,4.7,69,0.00,,,0.00,WUHU216HW,2013-07-19 14:38:00,
2013-07-19 10:43:00,84.8,73.3,29.94,WNW,293,3.4,6.3,68,0.00,,,0.00,WUHU216HW,2013-07-19 14:43:00,
2013-07-19 10:48:00,84.8,72.9,29.94,WSW,248,4.5,6.3,67,0.00,,,0.00,WUHU216HW,2013-07-19 14:48:00,
2013-07-19 10:53:00,84.8,73.8,29.94,SW,225,4.0,6.3,69,0.00,,,0.00,WUHU216HW,2013-07-19 14:53:00,
2013-07-19 10:58:00,84.9,73.4,29.94,WNW,293,1.8,6.7,68,0.00,,,0.00,WUHU216HW,2013-07-19 14:58:00,
2013-07-19 11:03:00,84.9,73.4,29.94,WNW,293,4.7,6.7,68,0.00,,,0.00,WUHU216HW,2013-07-19 15:03:00,
2013-07-19 11:08:00,85.3,73.4,29.94,SSE,158,1.8,6.7,67,0.00,,,0.00,WUHU216HW,2013-07-19 15:08:00,
2013-07-19 11:14:00,85.7,74.2,29.94,WSW,248,4.9,4.9,68,0.00,,,0.00,WUHU216HW,2013-07-19 15:14:00,
2013-07-19 11:19:00,85.7,73.8,29.94,SW,225,5.4,8.1,67,0.00,,,0.00,WUHU216HW,2013-07-19 15:19:00,
2013-07-19 11:24:00,85.8,73.8,29.94,SSW,203,6.3,8.1,67,0.00,,,0.00,WUHU216HW,2013-07-19 15:24:00,
2013-07-19 11:29:00,85.8,73.8,29.94,SW,225,6.3,6.3,67,0.00,,,0.00,WUHU216HW,2013-07-19 15:29:00,
2013-07-19 11:34:00,86.0,73.6,29.93,WSW,248,5.4,6.3,66,0.00,,,0.00,WUHU216HW,2013-07-19 15:34:00,
2013-07-19 11:39:00,86.2,73.8,29.94,North,0,2.9,6.7,66,0.00,,,0.00,WUHU216HW,2013-07-19 15:39:00,
2013-07-19 11:44:00,86.2,73.8,29.93,WSW,248,4.0,6.7,66,0.00,,,0.00,WUHU216HW,2013-07-19 15:44:00,
2013-07-19 11:49:00,86.4,73.5,29.93,WNW,293,6.3,6.5,65,0.00,,,0.00,WUHU216HW,2013-07-19 15:49:00,
2013-07-19 11:54:00,86.4,74.0,29.93,SW,225,7.8,7.8,66,0.00,,,0.00,WUHU216HW,2013-07-19 15:54:00,
2013-07-19 11:59:00,86.7,74.3,29.93,WSW,248,6.9,7.8,66,0.00,,,0.00,WUHU216HW,2013-07-19 15:59:00,
2013-07-19 12:04:00,86.7,73.8,29.93,SSW,203,1.3,7.8,65,0.00,,,0.00,WUHU216HW,2013-07-19 16:04:00,
2013-07-19 12:09:00,86.7,73.8,29.92,WNW,293,3.4,4.0,65,0.00,,,0.00,WUHU216HW,2013-07-19 16:09:00,
2013-07-19 12:15:00,86.9,74.0,29.92,West,270,5.1,6.7,65,0.00,,,0.00,WUHU216HW,2013-07-19 16:15:00,
2013-07-19 12:20:00,87.1,74.6,29.92,SSE,158,1.1,6.7,66,0.00,,,0.00,WUHU216HW,2013-07-19 16:20:00,
2013-07-19 12:25:00,87.1,74.2,29.92,SSW,203,4.0,5.4,65,0.00,,,0.00,WUHU216HW,2013-07-19 16:25:00,
2013-07-19 12:30:00,87.6,75.1,29.92,SSE,158,3.6,7.2,66,0.00,,,0.00,WUHU216HW,2013-07-19 16:30:00,
2013-07-19 12:35:00,87.8,74.4,29.92,NW,315,7.6,7.6,64,0.00,,,0.00,WUHU216HW,2013-07-19 16:35:00,
2013-07-19 12:40:00,87.6,74.2,29.92,NW,315,1.3,8.5,64,0.00,,,0.00,WUHU216HW,2013-07-19 16:40:00,
2013-07-19 12:45:00,87.6,74.7,29.91,South,180,2.2,8.5,65,0.00,,,0.00,WUHU216HW,2013-07-19 16:45:00,
2013-07-19 12:50:00,87.6,73.7,29.91,SW,225,1.8,8.9,63,0.00,,,0.00,WUHU216HW,2013-07-19 16:50:00,
2013-07-19 12:56:00,87.8,73.9,29.91,ESE,113,4.7,10.7,63,0.00,,,0.00,WUHU216HW,2013-07-19 16:56:00,
2013-07-19 13:01:00,87.8,74.4,29.91,WNW,293,3.4,10.7,64,0.00,,,0.00,WUHU216HW,2013-07-19 17:01:00,
2013-07-19 13:06:00,88.0,73.2,29.90,West,270,2.2,7.8,61,0.00,,,0.00,WUHU216HW,2013-07-19 17:06:00,
2013-07-19 13:11:00,88.0,73.6,29.91,WSW,248,6.0,8.7,62,0.00,,,0.00,WUHU216HW,2013-07-19 17:11:00,
2013-07-19 13:16:00,88.0,74.1,29.91,WNW,293,3.4,8.7,63,0.00,,,0.00,WUHU216HW,2013-07-19 17:16:00,
2013-07-19 13:21:00,88.0,74.1,29.90,WNW,293,4.3,6.5,63,0.00,,,0.00,WUHU216HW,2013-07-19 17:21:00,
2013-07-19 13:26:00,88.2,74.8,29.90,NW,315,2.9,5.4,64,0.00,,,0.00,WUHU216HW,2013-07-19 17:26:00,
2013-07-19 13:31:00,88.4,74.5,29.90,NNW,338,1.3,4.9,63,0.00,,,0.00,WUHU216HW,2013-07-19 17:31:00,
2013-07-19 13:36:00,88.4,74.5,29.90,South,180,1.8,6.3,63,0.00,,,0.00,WUHU216HW,2013-07-19 17:36:00,
2013-07-19 13:41:00,88.5,74.6,29.90,SW,225,2.7,6.3,63,0.00,,,0.00,WUHU216HW,2013-07-19 17:41:00,
2013-07-19 13:47:00,88.5,74.6,29.89,West,270,3.6,4.5,63,0.00,,,0.00,WUHU216HW,2013-07-19 17:47:00,
2013-07-19 13:52:00,88.4,74.5,29.89,SE,135,2.5,7.8,63,0.00,,,0.00,WUHU216HW,2013-07-19 17:52:00,
2013-07-19 13:57:00,88.4,74.5,29.89,SE,135,1.6,7.8,63,0.00,,,0.00,WUHU216HW,2013-07-19 17:57:00,
2013-07-19 14:02:00,88.7,74.8,29.89,WSW,248,3.4,4.9,63,0.00,,,0.00,WUHU216HW,2013-07-19 18:02:00,
2013-07-19 14:07:00,89.1,74.2,29.89,WNW,293,3.8,6.0,61,0.00,,,0.00,WUHU216HW,2013-07-19 18:07:00,
2013-07-19 14:12:00,89.3,73.9,29.88,West,270,3.4,7.2,60,0.00,,,0.00,WUHU216HW,2013-07-19 18:12:00,
2013-07-19 14:17:00,89.4,74.5,29.88,WSW,248,2.5,8.3,61,0.00,,,0.00,WUHU216HW,2013-07-19 18:17:00,
2013-07-19 14:22:00,89.6,74.7,29.88,SSW,203,4.5,8.3,61,0.00,,,0.00,WUHU216HW,2013-07-19 18:22:00,
2013-07-19 14:27:00,89.8,74.9,29.88,West,270,2.7,6.0,61,0.00,,,0.00,WUHU216HW,2013-07-19 18:27:00,
2013-07-19 14:32:00,90.0,73.5,29.88,SE,135,4.7,6.0,58,0.00,,,0.00,WUHU216HW,2013-07-19 18:32:00,
2013-07-19 14:38:00,89.8,73.3,29.88,SW,225,1.6,6.3,58,0.00,,,0.00,WUHU216HW,2013-07-19 18:38:00,
2013-07-19 14:43:00,89.8,73.9,29.87,WSW,248,3.4,6.3,59,0.00,,,0.00,WUHU216HW,2013-07-19 18:43:00,
2013-07-19 14:48:00,89.6,73.1,29.87,NW,315,5.4,6.7,58,0.00,,,0.00,WUHU216HW,2013-07-19 18:48:00,
2013-07-19 14:53:00,89.8,73.9,29.87,SE,135,0.9,6.7,59,0.00,,,0.00,WUHU216HW,2013-07-19 18:53:00,
2013-07-19 14:58:00,90.0,73.5,29.87,SSW,203,2.5,6.0,58,0.00,,,0.00,WUHU216HW,2013-07-19 18:58:00,
2013-07-19 15:03:00,90.2,74.2,29.86,SSW,203,6.7,6.7,59,0.00,,,0.00,WUHU216HW,2013-07-19 19:03:00,
2013-07-19 15:08:00,90.2,74.2,29.86,SW,225,1.8,6.7,59,0.00,,,0.00,WUHU216HW,2013-07-19 19:08:00,
2013-07-19 15:13:00,90.2,74.2,29.86,South,180,1.1,6.7,59,0.00,,,0.00,WUHU216HW,2013-07-19 19:13:00,
2013-07-19 15:18:00,90.3,74.3,29.86,SE,135,3.6,5.4,59,0.00,,,0.00,WUHU216HW,2013-07-19 19:18:00,
2013-07-19 15:23:00,90.5,74.0,29.86,WSW,248,4.7,4.7,58,0.00,,,0.00,WUHU216HW,2013-07-19 19:23:00,
2013-07-19 15:28:00,90.9,73.8,29.85,SW,225,6.7,6.7,57,0.00,,,0.00,WUHU216HW,2013-07-19 19:28:00,
2013-07-19 15:33:00,90.9,73.8,29.85,SE,135,1.8,6.7,57,0.00,,,0.00,WUHU216HW,2013-07-19 19:33:00,
2013-07-19 15:38:00,91.1,74.0,29.85,SSW,203,1.1,6.7,57,0.00,,,0.00,WUHU216HW,2013-07-19 19:38:00,
2013-07-19 15:43:00,90.9,73.3,29.85,ESE,113,3.4,5.6,56,0.00,,,0.00,WUHU216HW,2013-07-19 19:43:00,
2013-07-19 15:48:00,90.7,73.7,29.85,South,180,1.6,6.7,57,0.00,,,0.00,WUHU216HW,2013-07-19 19:48:00,
2013-07-19 15:53:00,90.5,73.5,29.84,South,180,6.9,6.9,57,0.00,,,0.00,WUHU216HW,2013-07-19 19:53:00,
2013-07-19 15:58:00,90.5,74.0,29.84,SSE,158,1.8,6.9,58,0.00,,,0.00,WUHU216HW,2013-07-19 19:58:00,
2013-07-19 16:03:00,90.5,74.0,29.84,WNW,293,1.8,6.9,58,0.00,,,0.00,WUHU216HW,2013-07-19 20:03:00,
2013-07-19 16:08:00,90.7,73.7,29.84,SSE,158,5.1,5.8,57,0.00,,,0.00,WUHU216HW,2013-07-19 20:08:00,
2013-07-19 16:13:00,90.5,73.5,29.84,WSW,248,4.9,5.8,57,0.00,,,0.00,WUHU216HW,2013-07-19 20:13:00,
2013-07-19 16:18:00,90.5,73.5,29.83,SSW,203,3.4,8.3,57,0.00,,,0.00,WUHU216HW,2013-07-19 20:18:00,
2013-07-19 16:24:00,90.5,73.5,29.84,SW,225,1.1,8.3,57,0.00,,,0.00,WUHU216HW,2013-07-19 20:24:00,
2013-07-19 16:29:00,90.5,73.5,29.84,SW,225,0.9,5.4,57,0.00,,,0.00,WUHU216HW,2013-07-19 20:29:00,
2013-07-19 16:34:00,90.5,74.0,29.84,SSW,203,3.6,5.4,58,0.00,,,0.00,WUHU216HW,2013-07-19 20:34:00,
2013-07-19 16:39:00,90.3,73.3,29.83,SW,225,3.4,5.4,57,0.00,,,0.00,WUHU216HW,2013-07-19 20:39:00,
2013-07-19 16:44:00,90.5,74.0,29.83,South,180,3.4,5.4,58,0.00,,,0.00,WUHU216HW,2013-07-19 20:44:00,
2013-07-19 16:49:00,90.9,74.4,29.83,South,180,0.9,5.4,58,0.00,,,0.00,WUHU216HW,2013-07-19 20:49:00,
2013-07-19 16:54:00,90.9,73.8,29.83,West,270,2.2,3.4,57,0.00,,,0.00,WUHU216HW,2013-07-19 20:54:00,
2013-07-19 16:59:00,90.9,74.4,29.83,ENE,68,2.9,4.0,58,0.00,,,0.00,WUHU216HW,2013-07-19 20:59:00,
2013-07-19 17:04:00,90.7,73.7,29.83,South,180,2.0,4.7,57,0.00,,,0.00,WUHU216HW,2013-07-19 21:04:00,
2013-07-19 17:09:00,90.9,73.8,29.82,East,90,5.1,6.9,57,0.00,,,0.00,WUHU216HW,2013-07-19 21:09:00,
2013-07-19 17:14:00,90.9,73.8,29.82,SSW,203,3.4,6.9,57,0.00,,,0.00,WUHU216HW,2013-07-19 21:14:00,
2013-07-19 17:19:00,90.7,74.2,29.82,SSE,158,2.2,5.4,58,0.00,,,0.00,WUHU216HW,2013-07-19 21:19:00,
2013-07-19 17:24:00,90.7,74.2,29.82,West,270,2.7,5.4,58,0.00,,,0.00,WUHU216HW,2013-07-19 21:24:00,
2013-07-19 17:29:00,90.7,74.2,29.81,WSW,248,1.6,4.0,58,0.00,,,0.00,WUHU216HW,2013-07-19 21:29:00,
2013-07-19 17:34:00,90.9,74.4,29.81,West,270,1.1,5.8,58,0.00,,,0.00,WUHU216HW,2013-07-19 21:34:00,
2013-07-19 17:39:00,91.6,74.5,29.81,East,90,4.0,6.7,57,0.00,,,0.00,WUHU216HW,2013-07-19 21:39:00,
2013-07-19 17:44:00,91.4,73.8,29.81,WNW,293,2.2,6.7,56,0.00,,,0.00,WUHU216HW,2013-07-19 21:44:00,
2013-07-19 17:49:00,92.0,74.9,29.81,SW,225,1.8,4.9,57,0.00,,,0.00,WUHU216HW,2013-07-19 21:49:00,
2013-07-19 17:54:00,92.0,73.2,29.81,SSE,158,1.8,4.9,54,0.00,,,0.00,WUHU216HW,2013-07-19 21:54:00,
2013-07-19 17:59:00,91.8,74.1,29.81,SW,225,2.5,5.6,56,0.00,,,0.00,WUHU216HW,2013-07-19 21:59:00,
2013-07-19 18:04:00,91.6,72.9,29.81,SW,225,5.1,5.6,54,0.00,,,0.00,WUHU216HW,2013-07-19 22:04:00,
2013-07-19 18:09:00,91.2,72.5,29.81,West,270,5.4,8.7,54,0.00,,,0.00,WUHU216HW,2013-07-19 22:09:00,
2013-07-19 18:14:00,91.1,72.9,29.82,ENE,68,1.1,8.7,55,0.00,,,0.00,WUHU216HW,2013-07-19 22:14:00,
2013-07-19 18:19:00,90.9,72.8,29.82,SE,135,2.5,6.7,55,0.00,,,0.00,WUHU216HW,2013-07-19 22:19:00,
2013-07-19 18:24:00,90.5,72.9,29.81,WSW,248,1.3,6.7,56,0.00,,,0.00,WUHU216HW,2013-07-19 22:24:00,
2013-07-19 18:29:00,90.3,73.3,29.81,West,270,3.8,5.8,57,0.00,,,0.00,WUHU216HW,2013-07-19 22:29:00,
2013-07-19 18:34:00,90.2,73.2,29.82,South,180,1.3,4.9,57,0.00,,,0.00,WUHU216HW,2013-07-19 22:34:00,
2013-07-19 18:39:00,89.8,73.3,29.82,WSW,248,1.8,3.8,58,0.00,,,0.00,WUHU216HW,2013-07-19 22:39:00,
2013-07-19 18:44:00,89.6,73.1,29.81,SW,225,5.4,5.4,58,0.00,,,0.00,WUHU216HW,2013-07-19 22:44:00,
2013-07-19 18:49:00,90.5,73.5,29.81,SSW,203,1.3,5.4,57,0.00,,,0.00,WUHU216HW,2013-07-19 22:49:00,
2013-07-19 18:54:00,90.9,73.8,29.81,West,270,1.6,5.1,57,0.00,,,0.00,WUHU216HW,2013-07-19 22:54:00,
2013-07-19 18:59:00,90.5,74.0,29.81,West,270,5.4,5.4,58,0.00,,,0.00,WUHU216HW,2013-07-19 22:59:00,
2013-07-19 19:04:00,90.5,73.5,29.81,SSE,158,4.9,5.8,57,0.00,,,0.00,WUHU216HW,2013-07-19 23:04:00,
2013-07-19 19:09:00,91.1,74.0,29.81,West,270,4.5,5.8,57,0.00,,,0.00,WUHU216HW,2013-07-19 23:09:00,
2013-07-19 19:14:00,90.9,73.8,29.81,SSE,158,1.1,5.4,57,0.00,,,0.00,WUHU216HW,2013-07-19 23:14:00,
2013-07-19 19:19:00,90.2,73.7,29.81,NNE,23,1.3,5.4,58,0.00,,,0.00,WUHU216HW,2013-07-19 23:19:00,
2013-07-19 19:24:00,89.3,73.4,29.81,West,270,1.1,5.1,59,0.00,,,0.00,WUHU216HW,2013-07-19 23:24:00,
2013-07-19 19:29:00,88.7,72.8,29.81,SW,225,0.4,5.1,59,0.00,,,0.00,WUHU216HW,2013-07-19 23:29:00,
2013-07-19 19:34:00,88.2,72.8,29.81,West,270,0.4,3.4,60,0.00,,,0.00,WUHU216HW,2013-07-19 23:34:00,
2013-07-19 19:39:00,87.6,72.8,29.81,ESE,113,0.2,6.3,61,0.00,,,0.00,WUHU216HW,2013-07-19 23:39:00,
2013-07-19 19:44:00,87.1,72.3,29.81,SE,135,1.1,6.3,61,0.00,,,0.00,WUHU216HW,2013-07-19 23:44:00,
2013-07-19 19:49:00,86.9,72.6,29.81,North,0,1.8,4.5,62,0.00,,,0.00,WUHU216HW,2013-07-19 23:49:00,
2013-07-19 19:54:00,86.6,72.8,29.82,SW,225,1.1,3.6,63,0.00,,,0.00,WUHU216HW,2013-07-19 23:54:00,
2013-07-19 19:59:00,86.6,72.8,29.82,SE,135,0.0,2.9,63,0.00,,,0.00,WUHU216HW,2013-07-19 23:59:00,
2013-07-19 20:05:00,86.2,72.9,29.82,WNW,293,0.9,3.1,64,0.00,,,0.00,WUHU216HW,2013-07-20 00:05:00,
2013-07-19 20:10:00,86.0,72.7,29.82,SE,135,0.0,3.4,64,0.00,,,0.00,WUHU216HW,2013-07-20 00:10:00,
2013-07-19 20:15:00,85.8,73.0,29.82,ESE,113,0.4,3.4,65,0.00,,,0.00,WUHU216HW,2013-07-20 00:15:00,
2013-07-19 20:20:00,85.7,73.3,29.83,SW,225,1.3,4.0,66,0.00,,,0.00,WUHU216HW,2013-07-20 00:20:00,
2013-07-19 20:25:00,85.5,73.6,29.83,SSW,203,0.7,4.7,67,0.00,,,0.00,WUHU216HW,2013-07-20 00:25:00,
2013-07-19 20:30:00,85.3,73.4,29.83,West,270,2.7,5.4,67,0.00,,,0.00,WUHU216HW,2013-07-20 00:30:00,
2013-07-19 20:35:00,85.1,74.0,29.84,SSE,158,1.3,5.4,69,0.00,,,0.00,WUHU216HW,2013-07-20 00:35:00,
2013-07-19 20:40:00,85.1,73.6,29.84,SSW,203,0.7,3.4,68,0.00,,,0.00,WUHU216HW,2013-07-20 00:40:00,
2013-07-19 20:45:00,84.9,73.8,29.84,South,180,1.6,3.1,69,0.00,,,0.00,WUHU216HW,2013-07-20 00:45:00,
2013-07-19 20:50:00,84.8,74.2,29.83,WSW,248,4.5,4.5,70,0.00,,,0.00,WUHU216HW,2013-07-20 00:50:00,
2013-07-19 20:55:00,84.6,74.0,29.84,West,270,2.5,4.7,70,0.00,,,0.00,WUHU216HW,2013-07-20 00:55:00,
2013-07-19 21:00:00,84.4,74.2,29.84,East,90,1.1,6.0,71,0.00,,,0.00,WUHU216HW,2013-07-20 01:00:00,
2013-07-19 21:05:00,84.4,74.6,29.83,SW,225,2.0,6.0,72,0.00,,,0.00,WUHU216HW,2013-07-20 01:05:00,
2013-07-19 21:10:00,84.2,74.0,29.84,SW,225,2.5,4.3,71,0.00,,,0.00,WUHU216HW,2013-07-20 01:10:00,
2013-07-19 21:15:00,84.0,74.2,29.84,WSW,248,1.8,4.3,72,0.00,,,0.00,WUHU216HW,2013-07-20 01:15:00,
2013-07-19 21:20:00,83.9,74.1,29.84,SE,135,2.0,6.9,72,0.00,,,0.00,WUHU216HW,2013-07-20 01:20:00,
2013-07-19 21:25:00,83.9,74.5,29.84,WSW,248,2.5,6.9,73,0.00,,,0.00,WUHU216HW,2013-07-20 01:25:00,
2013-07-19 21:30:00,83.7,74.7,29.84,SSE,158,1.3,6.7,74,0.00,,,0.00,WUHU216HW,2013-07-20 01:30:00,
2013-07-19 21:35:00,83.3,74.3,29.84,NW,315,5.4,6.9,74,0.00,,,0.00,WUHU216HW,2013-07-20 01:35:00,
2013-07-19 21:40:00,83.1,73.8,29.84,WSW,248,4.0,6.9,73,0.00,,,0.00,WUHU216HW,2013-07-20 01:40:00,
2013-07-19 21:45:00,83.0,73.7,29.84,WSW,248,4.5,5.4,73,0.00,,,0.00,WUHU216HW,2013-07-20 01:45:00,
2013-07-19 21:50:00,83.0,73.3,29.84,SW,225,0.9,4.5,72,0.00,,,0.00,WUHU216HW,2013-07-20 01:50:00,
2013-07-19 21:55:00,82.6,72.9,29.84,WSW,248,2.5,4.5,72,0.00,,,0.00,WUHU216HW,2013-07-20 01:55:00,
2013-07-19 22:00:00,82.2,72.5,29.84,SSW,203,2.0,5.8,72,0.00,,,0.00,WUHU216HW,2013-07-20 02:00:00,
2013-07-19 22:05:00,82.2,72.1,29.83,SSW,203,3.4,6.3,71,0.00,,,0.00,WUHU216HW,2013-07-20 02:05:00,
2013-07-19 22:10:00,81.9,71.8,29.83,WSW,248,2.7,6.3,71,0.00,,,0.00,WUHU216HW,2013-07-20 02:10:00,
2013-07-19 22:15:00,81.9,71.8,29.83,SSW,203,4.9,6.3,71,0.00,,,0.00,WUHU216HW,2013-07-20 02:15:00,
2013-07-19 22:20:00,81.7,71.6,29.83,West,270,0.2,4.9,71,0.00,,,0.00,WUHU216HW,2013-07-20 02:20:00,
2013-07-19 22:25:00,81.5,71.4,29.82,SSW,203,1.8,4.9,71,0.00,,,0.00,WUHU216HW,2013-07-20 02:25:00,
2013-07-19 22:30:00,81.3,71.2,29.81,East,90,0.2,3.8,71,0.00,,,0.00,WUHU216HW,2013-07-20 02:30:00,
2013-07-19 22:35:00,81.2,71.1,29.81,SW,225,1.3,3.4,71,0.00,,,0.00,WUHU216HW,2013-07-20 02:35:00,
2013-07-19 22:40:00,81.2,71.1,29.81,SW,225,1.8,3.4,71,0.00,,,0.00,WUHU216HW,2013-07-20 02:40:00,
2013-07-19 22:45:00,81.0,70.9,29.80,West,270,0.4,1.8,71,0.00,,,0.00,WUHU216HW,2013-07-20 02:45:00,
2013-07-19 22:50:00,80.8,71.1,29.80,SSW,203,0.4,0.9,72,0.00,,,0.00,WUHU216HW,2013-07-20 02:50:00,
2013-07-19 22:55:00,80.6,70.9,29.80,ENE,68,0.7,1.1,72,0.00,,,0.00,WUHU216HW,2013-07-20 02:55:00,
2013-07-19 23:00:00,80.4,70.8,29.80,South,180,0.2,1.1,72,0.00,,,0.00,WUHU216HW,2013-07-20 03:00:00,
2013-07-19 23:05:00,80.4,70.8,29.80,WSW,248,1.1,1.1,72,0.00,,,0.00,WUHU216HW,2013-07-20 03:05:00,
2013-07-19 23:10:00,80.3,70.7,29.80,WSW,248,0.0,1.1,72,0.00,,,0.00,WUHU216HW,2013-07-20 03:10:00,
2013-07-19 23:15:00,80.1,70.5,29.81,WSW,248,0.4,1.3,72,0.00,,,0.00,WUHU216HW,2013-07-20 03:15:00,
2013-07-19 23:21:00,80.1,70.5,29.81,ESE,113,0.0,1.3,72,0.00,,,0.00,WUHU216HW,2013-07-20 03:21:00,
2013-07-19 23:26:00,79.9,70.3,29.81,WSW,248,1.8,1.8,72,0.00,,,0.00,WUHU216HW,2013-07-20 03:26:00,
2013-07-19 23:31:00,79.7,70.1,29.80,SSE,158,0.9,3.6,72,0.00,,,0.00,WUHU216HW,2013-07-20 03:31:00,
2013-07-19 23:36:00,79.5,69.9,29.81,West,270,3.4,3.6,72,0.00,,,0.00,WUHU216HW,2013-07-20 03:36:00,
2013-07-19 23:41:00,79.4,70.2,29.81,SSW,203,0.2,3.4,73,0.00,,,0.00,WUHU216HW,2013-07-20 03:41:00,
2013-07-19 23:46:00,79.2,70.0,29.80,SW,225,1.1,3.4,73,0.00,,,0.00,WUHU216HW,2013-07-20 03:46:00,
2013-07-19 23:51:00,79.2,70.0,29.80,SW,225,1.6,3.4,73,0.00,,,0.00,WUHU216HW,2013-07-20 03:51:00,
2013-07-19 23:56:00,79.0,69.8,29.80,West,270,2.7,2.7,73,0.00,,,0.00,WUHU216HW,2013-07-20 03:56:00,